Time;durP1;ratioP1;P1;durP2;ratioP2;P2;SDS_P1;SDS_P2;PMS_P1;PMS_P2;Temp;Humidity;BMP_temperature;BMP_pressure;BME280_temperature;BME280_humidity;BME280_pressure;Samples;Min_cycle;Max_cycle;Signal;HPM_P1;HPM_P2
2022/06/19 00:01:57;;;;;;;;;15.00;14.33;;;;;-147.17;100.00;-15917.19;4951809;28;51360;-66
2022/06/19 00:04:22;;;;;;;;;12.50;12.50;;;;;-147.17;100.00;-15917.19;4952902;28;51202;-66
2022/06/19 00:06:48;;;;;;;;;17.25;16.25;;;;;-147.17;100.00;-15917.19;4962689;28;51207;-66
2022/06/19 00:09:13;;;;;;;;;17.33;17.00;;;;;-147.17;100.00;-15917.19;4960382;28;51467;-66
2022/06/19 00:11:39;;;;;;;;;14.67;14.67;;;;;-147.17;100.00;-15917.19;4967960;28;51426;-66
2022/06/19 00:14:06;;;;;;;;;18.25;18.25;;;;;-147.17;100.00;-15917.19;4961811;28;51703;-66
2022/06/19 00:16:32;;;;;;;;;18.25;16.75;;;;;-147.17;100.00;-15917.19;4957450;28;51114;-65
2022/06/19 00:18:58;;;;;;;;;17.67;16.67;;;;;-147.17;100.00;-15917.19;4959460;28;51176;-65
2022/06/19 00:21:23;;;;;;;;;17.00;16.33;;;;;-147.17;100.00;-15917.19;4963211;28;51251;-66
2022/06/19 00:23:49;;;;;;;;;14.25;14.00;;;;;-147.17;100.00;-15917.19;4955495;28;51643;-67
2022/06/19 00:26:15;;;;;;;;;17.00;16.00;;;;;-147.17;100.00;-15917.19;4957029;28;51051;-67
2022/06/19 00:28:41;;;;;;;;;17.67;17.00;;;;;-147.17;100.00;-15917.19;4951844;28;51156;-66
2022/06/19 00:31:07;;;;;;;;;18.67;17.33;;;;;-147.17;100.00;-15917.19;4958011;28;51320;-66
2022/06/19 00:33:33;;;;;;;;;14.00;14.00;;;;;-147.17;100.00;-15917.19;4957011;28;52002;-66
2022/06/19 00:35:58;;;;;;;;;11.75;11.25;;;;;-147.17;100.00;-15917.19;4952023;28;51077;-66
2022/06/19 00:38:24;;;;;;;;;13.00;13.00;;;;;-147.17;100.00;-15917.19;4943879;28;51222;-66
2022/06/19 00:40:49;;;;;;;;;16.67;15.00;;;;;-147.17;100.00;-15917.19;4959855;28;50991;-66
2022/06/19 00:43:15;;;;;;;;;15.00;13.33;;;;;-147.17;100.00;-15917.19;4960552;28;52149;-66
2022/06/19 00:45:49;;;;;;;;;12.67;12.67;;;;;-147.17;100.00;-15917.19;4954466;28;51093;-66
2022/06/19 00:48:15;;;;;;;;;14.00;13.33;;;;;-147.17;100.00;-15917.19;4963319;28;51232;-66
2022/06/19 00:50:43;;;;;;;;;13.67;12.67;;;;;-147.17;100.00;-15917.19;4969799;28;51380;-65
2022/06/19 00:53:13;;;;;;;;;13.00;13.00;;;;;-147.17;100.00;-15917.19;4963976;28;51774;-67
2022/06/19 00:55:43;;;;;;;;;11.00;10.33;;;;;-147.17;100.00;-15917.19;4956462;28;51120;-66
2022/06/19 00:58:31;;;;;;;;;10.00;9.00;;;;;-147.17;100.00;-15917.19;4962375;28;51394;-66
2022/06/19 01:01:04;;;;;;;;;11.33;10.33;;;;;-147.17;100.00;-15917.19;4941261;28;51425;-66
2022/06/19 01:03:46;;;;;;;;;12.33;11.67;;;;;-147.17;100.00;-15917.19;4965031;28;50984;-67
2022/06/19 01:06:11;;;;;;;;;11.00;10.00;;;;;-147.17;100.00;-15917.19;4955641;28;51102;-67
2022/06/19 01:08:37;;;;;;;;;9.67;9.67;;;;;-147.17;100.00;-15917.19;4940531;28;51174;-67
2022/06/19 01:11:04;;;;;;;;;10.33;10.00;;;;;-147.17;100.00;-15917.19;4962873;28;51272;-67
2022/06/19 01:13:30;;;;;;;;;10.00;9.67;;;;;-147.17;100.00;-15917.19;4956858;28;51180;-67
2022/06/19 01:15:57;;;;;;;;;10.33;10.00;;;;;-147.17;100.00;-15917.19;4968302;28;51247;-67
2022/06/19 01:18:24;;;;;;;;;13.67;11.67;;;;;-147.17;100.00;-15917.19;4958556;28;51251;-66
2022/06/19 01:20:55;;;;;;;;;13.00;13.00;;;;;-147.17;100.00;-15917.19;4947297;28;51390;-67
2022/06/19 01:23:48;;;;;;;;;12.33;12.00;;;;;-147.17;100.00;-15917.19;4953447;28;51817;-67
2022/06/19 01:26:16;;;;;;;;;12.67;11.00;;;;;-147.17;100.00;-15917.19;4960351;28;51223;-66
2022/06/19 01:28:56;;;;;;;;;13.67;13.00;;;;;-147.17;100.00;-15917.19;4958235;28;51076;-65
2022/06/19 01:31:30;;;;;;;;;11.00;11.00;;;;;-147.17;100.00;-15917.19;4968357;28;54337;-66
2022/06/19 01:34:26;;;;;;;;;15.00;13.00;;;;;-147.17;100.00;-15917.19;4962238;28;52139;-66
2022/06/19 01:36:56;;;;;;;;;14.33;13.67;;;;;-147.17;100.00;-15917.19;4965017;28;51368;-65
2022/06/19 01:39:24;;;;;;;;;16.00;15.00;;;;;-147.17;100.00;-15917.19;4962139;28;51112;-66
2022/06/19 01:41:50;;;;;;;;;13.33;12.33;;;;;-147.17;100.00;-15917.19;4968018;28;51231;-67
2022/06/19 01:44:15;;;;;;;;;13.00;13.00;;;;;-147.17;100.00;-15917.19;4963140;28;51995;-67
2022/06/19 01:46:41;;;;;;;;;12.33;10.67;;;;;-147.17;100.00;-15917.19;4965721;28;51251;-66
2022/06/19 01:49:06;;;;;;;;;13.67;12.67;;;;;-147.17;100.00;-15917.19;4966640;28;51524;-67
2022/06/19 01:51:33;;;;;;;;;14.00;13.00;;;;;-147.17;100.00;-15917.19;4961087;28;51200;-66
2022/06/19 01:54:04;;;;;;;;;16.33;13.33;;;;;-147.17;100.00;-15917.19;4946552;28;53596;-66
2022/06/19 01:56:30;;;;;;;;;13.00;12.33;;;;;-147.17;100.00;-15917.19;4961967;28;52784;-66
2022/06/19 01:59:04;;;;;;;;;11.67;11.33;;;;;-147.17;100.00;-15917.19;4963485;28;51060;-66
2022/06/19 02:01:31;;;;;;;;;14.00;12.00;;;;;-147.17;100.00;-15917.19;4955380;28;51469;-67
2022/06/19 02:04:00;;;;;;;;;13.33;12.33;;;;;-147.17;100.00;-15917.19;4966549;28;51985;-67
2022/06/19 02:06:29;;;;;;;;;15.33;14.00;;;;;-147.17;100.00;-15917.19;4954468;28;51108;-66
2022/06/19 02:08:55;;;;;;;;;15.67;12.33;;;;;-147.17;100.00;-15917.19;4959673;28;51199;-67
2022/06/19 02:11:22;;;;;;;;;14.00;13.00;;;;;-147.17;100.00;-15917.19;4954228;28;51243;-66
2022/06/19 02:13:48;;;;;;;;;13.00;11.67;;;;;-147.17;100.00;-15917.19;4943937;28;52070;-67
2022/06/19 02:16:20;;;;;;;;;14.33;11.33;;;;;-147.17;100.00;-15917.19;4968212;28;51102;-66
2022/06/19 02:18:49;;;;;;;;;13.67;11.67;;;;;-147.17;100.00;-15917.19;4970904;28;51061;-66
2022/06/19 02:21:19;;;;;;;;;12.00;10.67;;;;;-147.17;100.00;-15917.19;4943672;28;51298;-67
2022/06/19 02:23:46;;;;;;;;;14.33;12.33;;;;;-147.17;100.00;-15917.19;4961714;28;51809;-67
2022/06/19 02:26:13;;;;;;;;;11.33;10.67;;;;;-147.17;100.00;-15917.19;4971907;28;51013;-67
2022/06/19 02:28:46;;;;;;;;;11.33;11.00;;;;;-147.17;100.00;-15917.19;4963860;28;51455;-67
2022/06/19 02:31:11;;;;;;;;;14.00;12.00;;;;;-147.17;100.00;-15917.19;4956692;28;51196;-66
2022/06/19 02:33:44;;;;;;;;;11.67;10.33;;;;;-147.17;100.00;-15917.19;4967314;28;51111;-67
2022/06/19 02:36:30;;;;;;;;;12.33;10.33;;;;;-147.17;100.00;-15917.19;4954230;28;51077;-66
2022/06/19 02:39:00;;;;;;;;;9.00;8.00;;;;;-147.17;100.00;-15917.19;4946560;28;51614;-66
2022/06/19 02:41:33;;;;;;;;;12.67;10.33;;;;;-147.17;100.00;-15917.19;4958959;28;52256;-67
2022/06/19 02:44:00;;;;;;;;;11.00;10.00;;;;;-147.17;100.00;-15917.19;4957346;28;51351;-66
2022/06/19 02:46:25;;;;;;;;;8.67;8.67;;;;;-147.17;100.00;-15917.19;4966991;28;51173;-66
2022/06/19 02:48:51;;;;;;;;;8.67;8.33;;;;;-147.17;100.00;-15917.19;4965364;28;51354;-66
2022/06/19 02:51:16;;;;;;;;;11.67;11.00;;;;;-147.17;100.00;-15917.19;4957533;28;51187;-67
2022/06/19 02:53:41;;;;;;;;;11.00;10.33;;;;;-147.17;100.00;-15917.19;4962061;28;51179;-69
2022/06/19 02:56:07;;;;;;;;;14.33;11.00;;;;;-147.17;100.00;-15917.19;4961399;28;51170;-68
2022/06/19 02:58:32;;;;;;;;;12.33;11.00;;;;;-147.17;100.00;-15917.19;4957121;28;51611;-69
2022/06/19 03:00:57;;;;;;;;;11.00;10.00;;;;;-147.17;100.00;-15917.19;4968981;28;51311;-69
2022/06/19 03:03:35;;;;;;;;;15.33;11.67;;;;;-147.17;100.00;-15917.19;4956546;28;51427;-69
2022/06/19 03:06:01;;;;;;;;;14.33;12.67;;;;;-147.17;100.00;-15917.19;4968272;28;51078;-69
2022/06/19 03:08:26;;;;;;;;;11.67;11.33;;;;;-147.17;100.00;-15917.19;4953993;28;51215;-69
2022/06/19 03:10:51;;;;;;;;;10.33;10.00;;;;;-147.17;100.00;-15917.19;4958877;28;51315;-68
2022/06/19 03:13:21;;;;;;;;;16.00;15.67;;;;;-147.17;100.00;-15917.19;4964538;28;51284;-69
2022/06/19 03:15:47;;;;;;;;;12.00;12.00;;;;;-147.17;100.00;-15917.19;4970288;28;51391;-68
2022/06/19 03:18:12;;;;;;;;;12.33;11.33;;;;;-147.17;100.00;-15917.19;4963105;28;51183;-68
2022/06/19 03:20:38;;;;;;;;;14.00;13.00;;;;;-147.17;100.00;-15917.19;4953475;28;51168;-69
2022/06/19 03:23:03;;;;;;;;;8.00;6.33;;;;;-147.17;100.00;-15917.19;4955319;28;53901;-68
2022/06/19 03:25:29;;;;;;;;;11.67;9.67;;;;;-147.17;100.00;-15917.19;4961706;28;51093;-68
2022/06/19 03:27:54;;;;;;;;;11.00;10.33;;;;;-147.17;100.00;-15917.19;4963416;28;51167;-69
2022/06/19 03:30:21;;;;;;;;;15.67;13.00;;;;;-147.17;100.00;-15917.19;4959967;28;51711;-68
2022/06/19 03:32:48;;;;;;;;;14.00;11.00;;;;;-147.17;100.00;-15917.19;4965349;28;51851;-69
2022/06/19 03:35:14;;;;;;;;;11.00;10.00;;;;;-147.17;100.00;-15917.19;4965880;28;51218;-68
2022/06/19 03:37:40;;;;;;;;;12.00;11.00;;;;;-147.17;100.00;-15917.19;4953056;28;51340;-68
2022/06/19 03:40:06;;;;;;;;;12.00;12.00;;;;;-147.17;100.00;-15917.19;4958906;28;51304;-68
2022/06/19 03:42:32;;;;;;;;;11.33;11.00;;;;;-147.17;100.00;-15917.19;4953727;28;51823;-68
2022/06/19 03:44:58;;;;;;;;;17.00;13.67;;;;;-147.17;100.00;-15917.19;4960740;28;50994;-68
2022/06/19 03:47:25;;;;;;;;;14.33;12.67;;;;;-147.17;100.00;-15917.19;4939300;28;51187;-69
2022/06/19 03:49:51;;;;;;;;;12.00;11.67;;;;;-147.17;100.00;-15917.19;4965304;28;51128;-67
2022/06/19 03:52:17;;;;;;;;;11.67;11.00;;;;;-147.17;100.00;-15917.19;4957632;28;52824;-66
2022/06/19 03:54:42;;;;;;;;;12.67;11.67;;;;;-147.17;100.00;-15917.19;4953651;28;51183;-66
2022/06/19 03:57:10;;;;;;;;;15.67;13.00;;;;;-147.17;100.00;-15917.19;4957146;28;57088;-66
2022/06/19 03:59:36;;;;;;;;;14.67;14.67;;;;;-147.17;100.00;-15917.19;4970452;28;51303;-67
2022/06/19 04:02:03;;;;;;;;;15.33;11.67;;;;;-147.17;100.00;-15917.19;4962282;28;51682;-66
2022/06/19 04:04:29;;;;;;;;;11.67;11.67;;;;;-147.17;100.00;-15917.19;4967453;28;51092;-67
2022/06/19 04:06:54;;;;;;;;;12.33;11.67;;;;;-147.17;100.00;-15917.19;4961340;28;51133;-67
2022/06/19 04:09:20;;;;;;;;;13.33;13.33;;;;;-147.17;100.00;-15917.19;4945591;28;51095;-67
2022/06/19 04:11:45;;;;;;;;;14.00;13.00;;;;;-147.17;100.00;-15917.19;4958535;28;51958;-67
2022/06/19 04:14:12;;;;;;;;;14.00;12.33;;;;;-147.17;100.00;-15917.19;4953175;28;51168;-67
2022/06/19 04:16:37;;;;;;;;;12.33;11.67;;;;;-147.17;100.00;-15917.19;4958799;28;51179;-67
2022/06/19 04:19:05;;;;;;;;;15.67;14.33;;;;;-147.17;100.00;-15917.19;4959649;28;51090;-67
2022/06/19 04:21:33;;;;;;;;;15.33;15.33;;;;;-147.17;100.00;-15917.19;4964721;28;51843;-66
2022/06/19 04:24:03;;;;;;;;;14.33;13.67;;;;;-147.17;100.00;-15917.19;4959147;28;51295;-67
2022/06/19 04:26:30;;;;;;;;;21.75;17.50;;;;;-147.17;100.00;-15917.19;4956493;28;51078;-67
2022/06/19 04:28:56;;;;;;;;;15.33;14.67;;;;;-147.17;100.00;-15917.19;4960954;28;51266;-67
2022/06/19 04:31:22;;;;;;;;;12.67;12.00;;;;;-147.17;100.00;-15917.19;4957187;28;51790;-67
2022/06/19 04:33:47;;;;;;;;;17.33;15.33;;;;;-147.17;100.00;-15917.19;4940560;28;51198;-67
2022/06/19 04:36:15;;;;;;;;;15.00;13.00;;;;;-147.17;100.00;-15917.19;4972200;28;53268;-67
2022/06/19 04:38:43;;;;;;;;;15.00;12.33;;;;;-147.17;100.00;-15917.19;4969148;28;51408;-68
2022/06/19 04:41:20;;;;;;;;;15.67;13.33;;;;;-147.17;100.00;-15917.19;4962217;28;51857;-65
2022/06/19 04:43:45;;;;;;;;;15.75;14.00;;;;;-147.17;100.00;-15917.19;4957048;28;51181;-67
2022/06/19 04:46:11;;;;;;;;;18.00;15.00;;;;;-147.17;100.00;-15917.19;4952028;28;51413;-67
2022/06/19 04:48:38;;;;;;;;;10.33;10.00;;;;;-147.17;100.00;-15917.19;4942954;28;51076;-67
2022/06/19 04:51:04;;;;;;;;;11.00;10.00;;;;;-147.17;100.00;-15917.19;4939495;28;52609;-67
2022/06/19 04:53:29;;;;;;;;;14.67;11.33;;;;;-147.17;100.00;-15917.19;4947173;28;51255;-68
2022/06/19 04:55:55;;;;;;;;;13.67;10.00;;;;;-147.17;100.00;-15917.19;4959061;28;51438;-67
2022/06/19 04:58:22;;;;;;;;;13.00;9.67;;;;;-147.17;100.00;-15917.19;4959696;28;51392;-67
2022/06/19 05:00:49;;;;;;;;;11.67;9.00;;;;;-147.17;100.00;-15917.19;4957413;28;51657;-68
2022/06/19 05:03:16;;;;;;;;;10.67;8.67;;;;;-147.17;100.00;-15917.19;4952833;28;51464;-68
2022/06/19 05:05:41;;;;;;;;;11.67;11.00;;;;;-147.17;100.00;-15917.19;4960410;28;51576;-67
2022/06/19 05:08:06;;;;;;;;;14.00;12.00;;;;;-147.17;100.00;-15917.19;4956238;28;51295;-67
2022/06/19 05:10:32;;;;;;;;;11.67;11.33;;;;;-147.17;100.00;-15917.19;4968822;28;51156;-67
2022/06/19 05:12:57;;;;;;;;;6.67;6.67;;;;;-147.17;100.00;-15917.19;4969578;28;51061;-67
2022/06/19 05:15:23;;;;;;;;;13.00;9.67;;;;;-147.17;100.00;-15917.19;4961797;28;51080;-67
2022/06/19 05:17:50;;;;;;;;;10.67;9.33;;;;;-147.17;100.00;-15917.19;4973763;28;51057;-68
2022/06/19 05:20:15;;;;;;;;;10.00;7.33;;;;;-147.17;100.00;-15917.19;4962913;28;51454;-67
2022/06/19 05:22:41;;;;;;;;;7.00;7.00;;;;;-147.17;100.00;-15917.19;4960929;28;51352;-67
2022/06/19 05:25:08;;;;;;;;;12.00;8.33;;;;;-147.17;100.00;-15917.19;4954825;28;51417;-67
2022/06/19 05:27:40;;;;;;;;;8.00;7.67;;;;;-147.17;100.00;-15917.19;4955672;28;51026;-67
2022/06/19 05:30:07;;;;;;;;;10.00;7.33;;;;;-147.17;100.00;-15917.19;4941502;28;53963;-67
2022/06/19 05:32:32;;;;;;;;;8.33;8.33;;;;;-147.17;100.00;-15917.19;4937224;28;51425;-66
2022/06/19 05:34:57;;;;;;;;;7.00;6.67;;;;;-147.17;100.00;-15917.19;4960772;28;51164;-67
2022/06/19 05:37:23;;;;;;;;;7.33;7.00;;;;;-147.17;100.00;-15917.19;4967690;28;51018;-66
2022/06/19 05:39:49;;;;;;;;;7.33;7.33;;;;;-147.17;100.00;-15917.19;4959546;28;51922;-67
2022/06/19 05:42:15;;;;;;;;;7.00;7.00;;;;;-147.17;100.00;-15917.19;4973962;28;51215;-68
2022/06/19 05:44:40;;;;;;;;;7.33;6.67;;;;;-147.17;100.00;-15917.19;4964659;28;51364;-67
2022/06/19 05:47:06;;;;;;;;;8.00;7.67;;;;;-147.17;100.00;-15917.19;4973574;28;51018;-68
2022/06/19 05:49:33;;;;;;;;;6.33;6.00;;;;;-147.17;100.00;-15917.19;4971857;28;51826;-67
2022/06/19 05:52:00;;;;;;;;;5.67;5.67;;;;;-147.17;100.00;-15917.19;4967561;28;51168;-68
2022/06/19 05:54:27;;;;;;;;;13.33;11.67;;;;;-147.17;100.00;-15917.19;4958310;28;51186;-68
2022/06/19 05:56:52;;;;;;;;;84.00;76.67;;;;;-147.17;100.00;-15917.19;4943962;28;51271;-68
2022/06/19 05:59:17;;;;;;;;;76.75;66.75;;;;;-147.17;100.00;-15917.19;4966201;28;53863;-67
2022/06/19 06:01:43;;;;;;;;;65.00;53.50;;;;;-147.17;100.00;-15917.19;4964928;28;51160;-67
2022/06/19 06:04:09;;;;;;;;;34.25;32.50;;;;;-147.17;100.00;-15917.19;4956124;28;51311;-67
2022/06/19 06:06:34;;;;;;;;;14.00;14.00;;;;;-147.17;100.00;-15917.19;4958672;28;51401;-66
2022/06/19 06:08:59;;;;;;;;;8.00;8.00;;;;;-147.17;100.00;-15917.19;4958693;28;52518;-66
2022/06/19 06:11:25;;;;;;;;;6.00;6.00;;;;;-147.17;100.00;-15917.19;4971622;28;51108;-66
2022/06/19 06:13:51;;;;;;;;;7.33;6.67;;;;;-147.17;100.00;-15917.19;4971957;28;51009;-67
2022/06/19 06:16:19;;;;;;;;;4.33;4.33;;;;;-147.17;100.00;-15917.19;4965280;28;51256;-66
2022/06/19 06:18:44;;;;;;;;;6.00;4.67;;;;;-147.17;100.00;-15917.19;4957398;28;51874;-66
2022/06/19 06:21:12;;;;;;;;;5.67;4.67;;;;;-147.17;100.00;-15917.19;4959321;28;51201;-67
2022/06/19 06:23:38;;;;;;;;;4.00;3.67;;;;;-147.17;100.00;-15917.19;4963689;28;50974;-67
2022/06/19 06:26:09;;;;;;;;;6.33;5.67;;;;;-147.17;100.00;-15917.19;4962073;28;51174;-66
2022/06/19 06:28:37;;;;;;;;;4.00;3.67;;;;;-147.17;100.00;-15917.19;4945543;28;51967;-68
2022/06/19 06:31:03;;;;;;;;;7.67;4.00;;;;;-147.17;100.00;-15917.19;4971942;28;51564;-67
2022/06/19 06:33:29;;;;;;;;;6.33;6.00;;;;;-147.17;100.00;-15917.19;4958474;28;50983;-67
2022/06/19 06:35:55;;;;;;;;;5.67;5.00;;;;;-147.17;100.00;-15917.19;4971142;28;51115;-67
2022/06/19 06:38:21;;;;;;;;;6.00;5.33;;;;;-147.17;100.00;-15917.19;4962412;28;52110;-67
2022/06/19 06:40:47;;;;;;;;;4.67;4.33;;;;;-147.17;100.00;-15917.19;4977941;28;51678;-66
2022/06/19 06:43:13;;;;;;;;;5.33;5.00;;;;;-147.17;100.00;-15917.19;4962357;28;51130;-67
2022/06/19 06:45:38;;;;;;;;;5.00;5.00;;;;;-147.17;100.00;-15917.19;4957615;28;51117;-67
2022/06/19 06:48:04;;;;;;;;;5.33;5.33;;;;;-147.17;100.00;-15917.19;4963476;28;53032;-68
2022/06/19 06:50:30;;;;;;;;;7.00;6.00;;;;;-147.17;100.00;-15917.19;4960327;28;51125;-68
2022/06/19 06:52:55;;;;;;;;;7.33;7.00;;;;;-147.17;100.00;-15917.19;4968648;28;51214;-68
2022/06/19 06:55:21;;;;;;;;;6.67;6.00;;;;;-147.17;100.00;-15917.19;4961502;28;51255;-69
2022/06/19 06:57:46;;;;;;;;;5.67;5.33;;;;;-147.17;100.00;-15917.19;4969667;28;51828;-69
2022/06/19 07:00:17;;;;;;;;;5.67;5.33;;;;;-147.17;100.00;-15917.19;4964219;28;51352;-69
2022/06/19 07:02:42;;;;;;;;;7.00;7.00;;;;;-147.17;100.00;-15917.19;4968876;28;51261;-68
2022/06/19 07:05:08;;;;;;;;;8.67;6.67;;;;;-147.17;100.00;-15917.19;4955551;28;51563;-68
2022/06/19 07:07:33;;;;;;;;;7.00;7.00;;;;;-147.17;100.00;-15917.19;4953778;28;51272;-71
2022/06/19 07:09:59;;;;;;;;;7.00;6.00;;;;;-147.17;100.00;-15917.19;4962999;28;51230;-67
2022/06/19 07:12:24;;;;;;;;;6.67;6.33;;;;;-147.17;100.00;-15917.19;4970168;28;51162;-67
2022/06/19 07:14:51;;;;;;;;;6.33;6.00;;;;;-147.17;100.00;-15917.19;4964526;28;51662;-67
2022/06/19 07:17:16;;;;;;;;;9.00;6.00;;;;;-147.17;100.00;-15917.19;4973414;28;51630;-67
2022/06/19 07:19:41;;;;;;;;;7.67;7.33;;;;;-147.17;100.00;-15917.19;4958172;28;50954;-68
2022/06/19 07:22:12;;;;;;;;;6.67;6.67;;;;;-147.17;100.00;-15917.19;4957101;28;51315;-69
2022/06/19 07:24:37;;;;;;;;;6.00;5.33;;;;;-147.17;100.00;-15917.19;4953619;28;51339;-69
2022/06/19 07:27:02;;;;;;;;;5.33;5.33;;;;;-147.17;100.00;-15917.19;4975083;28;51254;-68
2022/06/19 07:29:28;;;;;;;;;7.00;6.67;;;;;-147.17;100.00;-15917.19;4956444;28;51364;-66
2022/06/19 07:31:54;;;;;;;;;6.00;5.33;;;;;-147.17;100.00;-15917.19;4963933;28;52822;-67
2022/06/19 07:34:19;;;;;;;;;7.33;5.67;;;;;-147.17;100.00;-15917.19;4953005;28;51383;-66
2022/06/19 07:36:45;;;;;;;;;7.00;6.33;;;;;-147.17;100.00;-15917.19;4957428;28;51971;-66
2022/06/19 07:39:10;;;;;;;;;7.00;6.33;;;;;-147.17;100.00;-15917.19;4953347;28;53516;-66
2022/06/19 07:41:35;;;;;;;;;4.33;4.00;;;;;-147.17;100.00;-15917.19;4967207;28;51209;-67
2022/06/19 07:44:01;;;;;;;;;8.33;7.33;;;;;-147.17;100.00;-15917.19;4962165;28;51328;-67
2022/06/19 07:46:26;;;;;;;;;11.33;8.67;;;;;-147.17;100.00;-15917.19;4961206;28;51932;-66
2022/06/19 07:51:36;;;;;;;;;8.00;8.00;;;;;-147.17;100.00;-15917.19;4968726;28;51175;-67
2022/06/19 07:54:02;;;;;;;;;8.33;8.00;;;;;-147.17;100.00;-15917.19;4944826;28;51393;-67
2022/06/19 07:56:28;;;;;;;;;7.67;5.33;;;;;-147.17;100.00;-15917.19;4964148;28;51342;-67
2022/06/19 07:58:53;;;;;;;;;8.00;6.00;;;;;-147.17;100.00;-15917.19;4966439;28;51188;-68
2022/06/19 08:01:19;;;;;;;;;8.00;8.00;;;;;-147.17;100.00;-15917.19;4948262;28;51295;-68
2022/06/19 08:03:46;;;;;;;;;6.67;6.67;;;;;-147.17;100.00;-15917.19;4956947;28;51329;-68
2022/06/19 08:06:13;;;;;;;;;9.00;7.00;;;;;-147.17;100.00;-15917.19;4961605;28;51205;-68
2022/06/19 08:08:39;;;;;;;;;8.00;7.00;;;;;-147.17;100.00;-15917.19;4956935;28;51260;-68
2022/06/19 08:11:04;;;;;;;;;7.67;7.33;;;;;-147.17;100.00;-15917.19;4955739;28;51462;-68
2022/06/19 08:13:32;;;;;;;;;5.33;5.00;;;;;-147.17;100.00;-15917.19;4962357;28;51121;-68
2022/06/19 08:16:03;;;;;;;;;8.00;7.67;;;;;-147.17;100.00;-15917.19;4947832;28;52910;-67
2022/06/19 08:18:30;;;;;;;;;8.00;7.33;;;;;-147.17;100.00;-15917.19;4964761;28;51089;-68
2022/06/19 08:20:55;;;;;;;;;8.00;7.00;;;;;-147.17;100.00;-15917.19;4958947;28;51110;-68
2022/06/19 08:23:21;;;;;;;;;7.33;7.00;;;;;-147.17;100.00;-15917.19;4967220;28;51100;-68
2022/06/19 08:25:47;;;;;;;;;8.00;7.33;;;;;-147.17;100.00;-15917.19;4957678;28;52399;-68
2022/06/19 08:28:15;;;;;;;;;8.00;7.67;;;;;-147.17;100.00;-15917.19;4952611;28;51159;-67
2022/06/19 08:30:42;;;;;;;;;6.67;6.33;;;;;-147.17;100.00;-15917.19;4957474;28;51905;-67
2022/06/19 08:33:08;;;;;;;;;6.33;6.33;;;;;-147.17;100.00;-15917.19;4951390;28;52205;-67
2022/06/19 08:35:40;;;;;;;;;9.33;9.00;;;;;-147.17;100.00;-15917.19;4957944;28;51191;-67
2022/06/19 08:38:17;;;;;;;;;7.33;7.33;;;;;-147.17;100.00;-15917.19;4935291;28;51399;-67
2022/06/19 08:40:55;;;;;;;;;9.00;7.67;;;;;-147.17;100.00;-15917.19;4972573;28;51237;-67
2022/06/19 08:43:44;;;;;;;;;6.67;6.33;;;;;-147.17;100.00;-15917.19;4970784;28;51266;-67
2022/06/19 08:46:20;;;;;;;;;8.33;8.00;;;;;-147.17;100.00;-15917.19;4962120;28;51287;-67
2022/06/19 08:48:59;;;;;;;;;7.67;7.67;;;;;-147.17;100.00;-15917.19;4968821;28;51275;-67
2022/06/19 08:51:37;;;;;;;;;7.00;6.67;;;;;-147.17;100.00;-15917.19;4962836;28;51611;-67
2022/06/19 08:54:27;;;;;;;;;13.67;10.00;;;;;-147.17;100.00;-15917.19;4966173;28;51339;-67
2022/06/19 08:57:11;;;;;;;;;9.33;8.67;;;;;-147.17;100.00;-15917.19;4963886;28;53215;-67
2022/06/19 09:00:01;;;;;;;;;12.67;9.67;;;;;-147.17;100.00;-15917.19;4952353;28;51099;-67
2022/06/19 09:02:51;;;;;;;;;20.75;19.00;;;;;-147.17;100.00;-15917.19;4966294;28;51250;-68
2022/06/19 09:05:37;;;;;;;;;10.33;10.33;;;;;-147.17;100.00;-15917.19;4961172;28;51077;-67
2022/06/19 09:08:11;;;;;;;;;16.33;14.00;;;;;-147.17;100.00;-15917.19;4973948;28;52646;-68
2022/06/19 09:10:48;;;;;;;;;12.67;10.33;;;;;-147.17;100.00;-15917.19;4970498;28;51245;-67
2022/06/19 09:13:22;;;;;;;;;10.00;10.00;;;;;-147.17;100.00;-15917.19;4954495;28;51457;-66
2022/06/19 09:16:07;;;;;;;;;11.00;10.00;;;;;-147.17;100.00;-15917.19;4956202;28;51209;-67
2022/06/19 09:18:49;;;;;;;;;11.33;9.67;;;;;-147.17;100.00;-15917.19;4956010;28;52279;-67
2022/06/19 09:21:28;;;;;;;;;13.33;12.33;;;;;-147.17;100.00;-15917.19;4964530;28;51548;-68
2022/06/19 09:23:56;;;;;;;;;15.00;12.00;;;;;-147.17;100.00;-15917.19;4964253;28;51336;-67
2022/06/19 09:26:26;;;;;;;;;14.33;14.00;;;;;-147.17;100.00;-15917.19;4958422;28;51274;-68
2022/06/19 09:29:13;;;;;;;;;14.00;12.67;;;;;-147.17;100.00;-15917.19;4949055;28;52930;-68
2022/06/19 09:31:48;;;;;;;;;14.33;13.67;;;;;-147.17;100.00;-15917.19;4959107;28;50996;-67
2022/06/19 09:34:45;;;;;;;;;12.00;12.00;;;;;-147.17;100.00;-15917.19;4960984;28;51232;-66
2022/06/19 09:37:25;;;;;;;;;13.67;13.33;;;;;-147.17;100.00;-15917.19;4964871;28;51310;-68
2022/06/19 09:40:00;;;;;;;;;14.00;13.00;;;;;-147.17;100.00;-15917.19;4969014;28;52160;-68
2022/06/19 09:42:37;;;;;;;;;13.33;13.33;;;;;-147.17;100.00;-15917.19;4963252;28;51188;-68
2022/06/19 09:45:26;;;;;;;;;17.00;15.00;;;;;-147.17;100.00;-15917.19;4955835;28;51184;-68
2022/06/19 09:48:21;;;;;;;;;17.50;15.50;;;;;-147.17;100.00;-15917.19;4941806;28;51296;-65
2022/06/19 09:50:53;;;;;;;;;14.33;13.00;;;;;-147.17;100.00;-15917.19;4946375;28;54353;-66
2022/06/19 09:53:40;;;;;;;;;17.33;15.00;;;;;-147.17;100.00;-15917.19;4958746;28;51187;-66
2022/06/19 09:56:43;;;;;;;;;14.67;12.00;;;;;-147.17;100.00;-15917.19;4970751;28;51157;-67
2022/06/19 09:59:18;;;;;;;;;16.67;15.33;;;;;-147.17;100.00;-15917.19;4951143;28;51202;-65
2022/06/19 10:01:56;;;;;;;;;16.00;13.67;;;;;-147.17;100.00;-15917.19;4975423;28;51874;-66
2022/06/19 10:04:27;;;;;;;;;16.67;15.00;;;;;-147.17;100.00;-15917.19;4930197;28;51238;-69
2022/06/19 10:07:02;;;;;;;;;15.33;13.33;;;;;-147.17;100.00;-15917.19;4964141;28;50998;-67
2022/06/19 10:09:37;;;;;;;;;11.33;11.33;;;;;-147.17;100.00;-15917.19;4946446;28;51052;-67
2022/06/19 10:12:04;;;;;;;;;12.33;12.33;;;;;-147.17;100.00;-15917.19;4948846;28;54494;-68
2022/06/19 10:14:39;;;;;;;;;14.67;14.00;;;;;-147.17;100.00;-15917.19;4961452;28;51204;-67
2022/06/19 10:17:04;;;;;;;;;14.00;13.00;;;;;-147.17;100.00;-15917.19;4972856;28;51048;-70
2022/06/19 10:19:49;;;;;;;;;15.00;11.33;;;;;-147.17;100.00;-15917.19;4961949;28;51328;-67
2022/06/19 10:22:18;;;;;;;;;16.00;15.33;;;;;-147.17;100.00;-15917.19;4961419;28;51231;-67
2022/06/19 10:25:02;;;;;;;;;13.33;13.00;;;;;-147.17;100.00;-15917.19;4946945;28;51467;-68
2022/06/19 10:28:07;;;;;;;;;15.00;14.00;;;;;-147.17;100.00;-15917.19;4951125;28;51262;-68
2022/06/19 10:30:54;;;;;;;;;16.00;16.00;;;;;-147.17;100.00;-15917.19;4965547;28;51093;-68
2022/06/19 10:33:33;;;;;;;;;16.00;15.33;;;;;-147.17;100.00;-15917.19;4954645;28;51307;-65
2022/06/19 10:36:08;;;;;;;;;15.00;13.00;;;;;-147.17;100.00;-15917.19;4948123;28;51260;-68
2022/06/19 10:38:58;;;;;;;;;14.67;14.00;;;;;-147.17;100.00;-15917.19;4962423;28;51218;-69
2022/06/19 10:44:59;;;;;;;;;16.00;15.67;;;;;-147.17;100.00;-15917.19;4950167;28;51394;-67
2022/06/19 10:47:45;;;;;;;;;18.00;16.00;;;;;-147.17;100.00;-15917.19;4940682;28;53037;-67
2022/06/19 10:50:29;;;;;;;;;18.00;17.67;;;;;-147.17;100.00;-15917.19;4949614;28;51517;-66
2022/06/19 10:53:22;;;;;;;;;18.00;16.33;;;;;-147.17;100.00;-15917.19;4949986;28;51382;-66
2022/06/19 10:56:02;;;;;;;;;14.00;14.00;;;;;-147.17;100.00;-15917.19;4927548;28;52146;-67
2022/06/19 10:58:30;;;;;;;;;18.00;18.00;;;;;-147.17;100.00;-15917.19;4945763;28;51189;-67
2022/06/19 11:00:59;;;;;;;;;18.33;18.33;;;;;-147.17;100.00;-15917.19;4948879;28;51607;-67
2022/06/19 11:06:51;;;;;;;;;19.00;18.67;;;;;-147.17;100.00;-15917.19;4945270;28;51763;-67
2022/06/19 11:09:24;;;;;;;;;16.00;15.00;;;;;-147.17;100.00;-15917.19;4931894;28;51709;-68
2022/06/19 11:11:54;;;;;;;;;19.00;17.33;;;;;-147.17;100.00;-15917.19;4926168;28;52510;-68
2022/06/19 11:14:44;;;;;;;;;17.33;16.33;;;;;-147.17;100.00;-15917.19;4946308;28;51821;-69